Frances Anne — WDE8555 — position and weather

sailwx.info

Track history (hours):
 
Tides and Currents Weather Stations Pressure Air Temp Water Temp Dewpoint Dewpoint Depression Visibility Wind Speed Wind Dir Waves Ship Positions

Frances Anne

Owner: Frances Anne Inc., West Creek, NJ. More information available from US FCC via Universal Licensing System and Coast Guard Vessel Documentation Center.

Last reported at 2016-Dec-06 11:33 UTC. Time now 2016-Dec-06 12:15 UTC.
Position N 39°46' W 074°07'.

Type: Fishing. MMSI: 367406910.

Date/timePositionNaut miles runAvg speedWind from/ knotsBaromVisibWave heightAir tempDewpointWater temp
2016-Dec-06 11:33N 39°46' W 074°07'0 0.0
2016-Dec-06 10:33N 39°46' W 074°07'0 0.0
2016-Dec-06 09:33N 39°46' W 074°07'0 0.0
2016-Dec-06 08:33N 39°46' W 074°07'0 0.0
2016-Dec-06 07:33N 39°46' W 074°07'0 0.0
2016-Dec-06 06:33N 39°46' W 074°07'0 0.0
2016-Dec-06 05:33N 39°46' W 074°07'0 0.0
2016-Dec-06 04:33N 39°46' W 074°07'0 0.0
2016-Dec-06 03:33N 39°46' W 074°07'0 0.0
2016-Dec-06 02:33N 39°46' W 074°07'0 0.0
2016-Dec-06 01:33N 39°46' W 074°07'0 0.0
2016-Dec-06 00:15N 39°46' W 074°07'0 0.0
2016-Dec-05 23:33N 39°46' W 074°07'0 0.0
2016-Dec-05 22:33N 39°46' W 074°06'0 0.0
2016-Dec-05 21:27N 39°46' W 074°07'0 0.0
2016-Dec-05 20:21N 39°46' W 074°07'0 0.0
2016-Dec-05 19:27N 39°46' W 074°07'0 0.0
2016-Dec-05 18:33N 39°46' W 074°07'0 0.0
2016-Dec-05 17:33N 39°46' W 074°07'0 0.0
2016-Dec-05 16:33N 39°46' W 074°07'0 0.0
2016-Dec-05 15:33N 39°46' W 074°07'0 0.0
2016-Dec-05 13:33N 39°46' W 074°07'0 0.0
2016-Dec-05 12:27N 39°46' W 074°07'0 0.1
2016-Dec-05 11:19N 39°46' W 074°07'4 5.7
2016-Dec-05 10:33N 39°47' W 074°01'5 0.2
2016-Dec-04 13:03N 39°50' W 073°56'4 7.7
2016-Dec-04 12:33N 39°48' W 074°00'5 4.7
2016-Dec-04 11:25N 39°46' W 074°07'0 0.0
2016-Dec-04 10:31N 39°46' W 074°07'0 0.0
2016-Dec-04 09:19N 39°46' W 074°07'0 0.0
2016-Dec-04 08:31N 39°46' W 074°07'0 0.0
2016-Dec-04 07:31N 39°46' W 074°07'0 0.0
2016-Dec-04 06:31N 39°46' W 074°07'0 0.0
2016-Dec-04 05:19N 39°46' W 074°07'0 0.0
2016-Dec-04 04:31N 39°46' W 074°07'0 0.0
2016-Dec-04 03:31N 39°46' W 074°07'0 0.0
2016-Dec-04 02:31N 39°46' W 074°07'0 0.0
2016-Dec-04 01:31N 39°46' W 074°07'0 0.0
2016-Dec-04 00:31N 39°46' W 074°07'0 0.0
2016-Dec-03 23:31N 39°46' W 074°07'0 0.0
2016-Dec-03 22:31N 39°46' W 074°07'0 0.0
2016-Dec-03 21:25N 39°46' W 074°07'0 0.0
2016-Dec-03 20:31N 39°46' W 074°07'0 0.0
2016-Dec-03 19:31N 39°46' W 074°07'0 0.0
2016-Dec-03 18:25N 39°46' W 074°07'0 0.0
2016-Dec-03 17:31N 39°46' W 074°07'0 0.0
2016-Dec-03 16:31N 39°46' W 074°07'0 0.0
2016-Dec-03 15:31N 39°46' W 074°07'0 0.0
2016-Dec-03 14:31N 39°46' W 074°07'0 0.0
2016-Dec-03 13:31N 39°46' W 074°07'0 0.0
2016-Dec-03 12:31N 39°46' W 074°07'0 0.0
2016-Dec-03 11:31N 39°46' W 074°07'0 0.0
2016-Dec-03 09:31N 39°46' W 074°07'0 0.0
2016-Dec-03 08:31N 39°46' W 074°07'0 0.0
2016-Dec-03 07:25N 39°46' W 074°07'0 0.0
2016-Dec-03 06:31N 39°46' W 074°07'0 0.0
2016-Dec-03 05:31N 39°46' W 074°07'0 0.0
2016-Dec-03 04:25N 39°46' W 074°07'0 0.0
2016-Dec-03 03:25N 39°46' W 074°07'0 0.0
2016-Dec-03 02:25N 39°46' W 074°07'0 0.0
2016-Dec-03 00:31N 39°46' W 074°07'0 0.0
2016-Dec-02 23:31N 39°46' W 074°07'0 0.0
2016-Dec-02 22:25N 39°46' W 074°07'0 0.0
2016-Dec-02 21:31N 39°46' W 074°07'0 0.0
2016-Dec-02 20:31N 39°46' W 074°07'0 0.0
2016-Dec-02 19:19N 39°46' W 074°07'0 0.0
2016-Dec-02 18:25N 39°46' W 074°07'0 0.0
2016-Dec-02 17:31N 39°46' W 074°07'0 0.0
2016-Dec-02 16:31N 39°46' W 074°07'0 0.0
2016-Dec-02 15:25N 39°46' W 074°07'0 0.0
2016-Dec-02 14:31N 39°46' W 074°07'0 0.0
2016-Dec-02 13:31N 39°46' W 074°07'0 0.0
2016-Dec-02 12:31N 39°46' W 074°07'0 0.0
2016-Dec-02 11:31N 39°46' W 074°07'0 0.0
2016-Dec-02 10:31N 39°46' W 074°07'0 0.0
2016-Dec-02 09:31N 39°46' W 074°07'0 0.0
2016-Dec-02 08:31N 39°46' W 074°07'0 0.0
2016-Dec-02 07:25N 39°46' W 074°07'0 0.0
2016-Dec-02 06:31N 39°46' W 074°07'0 0.0
2016-Dec-02 05:31N 39°46' W 074°07'0 0.0
2016-Dec-02 04:31N 39°46' W 074°07'0 0.0
2016-Dec-02 03:31N 39°46' W 074°07'0 0.0
2016-Dec-02 02:31N 39°46' W 074°07'0 0.0
2016-Dec-02 01:31N 39°46' W 074°07'0 0.0
2016-Dec-02 00:25N 39°46' W 074°07'0 0.0
2016-Dec-01 23:25N 39°46' W 074°07'0 0.0
2016-Dec-01 22:31N 39°46' W 074°07'0 0.0
2016-Dec-01 21:31N 39°46' W 074°07'0 0.0
2016-Dec-01 20:31N 39°46' W 074°07'0 0.0
2016-Dec-01 19:31N 39°46' W 074°07'0 0.0
2016-Dec-01 18:25N 39°46' W 074°07'0 0.0
2016-Dec-01 17:19N 39°46' W 074°07'0 0.0
2016-Dec-01 16:31N 39°46' W 074°07'0 0.0
2016-Dec-01 15:31N 39°46' W 074°07'0 0.0
2016-Dec-01 14:31N 39°46' W 074°07'0 0.0
2016-Dec-01 13:25N 39°46' W 074°07'0 0.0
2016-Dec-01 12:31N 39°46' W 074°07'0 0.0
2016-Dec-01 11:25N 39°46' W 074°07'0 0.0
2016-Dec-01 10:31N 39°46' W 074°07'0 0.0
2016-Dec-01 09:31N 39°46' W 074°07'0 0.0
2016-Dec-01 08:19N 39°46' W 074°07'0 0.0
2016-Dec-01 07:31N 39°46' W 074°07'0 0.0
2016-Dec-01 06:31N 39°46' W 074°07'0 0.0
2016-Dec-01 05:25N 39°46' W 074°07'0 0.0
2016-Dec-01 04:07N 39°46' W 074°07'0 0.0
2016-Dec-01 03:25N 39°46' W 074°07'0 0.0
2016-Dec-01 02:25N 39°46' W 074°07'0 0.0
2016-Dec-01 01:31N 39°46' W 074°07'0 0.0
2016-Dec-01 00:31N 39°46' W 074°07'0 0.0
2016-Nov-30 23:25N 39°46' W 074°07'0 0.0
2016-Nov-30 22:25N 39°46' W 074°07'0 0.0
2016-Nov-30 21:31N 39°46' W 074°07'0 0.0
2016-Nov-30 20:31N 39°46' W 074°07'0 0.0
2016-Nov-30 19:31N 39°46' W 074°07'0 0.0
2016-Nov-30 18:31N 39°46' W 074°07'0 0.0
2016-Nov-30 17:31N 39°46' W 074°07'0 0.0
2016-Nov-30 15:25N 39°46' W 074°07'0 0.0
2016-Nov-30 14:31N 39°46' W 074°07'0 0.0
2016-Nov-30 13:25N 39°46' W 074°07'0 0.0
2016-Nov-30 12:31N 39°46' W 074°07'0 0.0
2016-Nov-30 11:31N 39°46' W 074°07'0 0.0
2016-Nov-30 10:19N 39°46' W 074°07'0 0.0
2016-Nov-30 09:19N 39°46' W 074°07'0 0.0
2016-Nov-30 08:25N 39°46' W 074°07'0 0.0
2016-Nov-30 07:25N 39°46' W 074°07'0 0.0
2016-Nov-30 06:31N 39°46' W 074°07'0 0.0
2016-Nov-30 05:25N 39°46' W 074°07'0 0.0
2016-Nov-30 04:31N 39°46' W 074°07'0 0.0
2016-Nov-30 03:31N 39°46' W 074°07'0 0.0
2016-Nov-30 02:19N 39°46' W 074°07'0 0.0
2016-Nov-30 01:13N 39°46' W 074°07'0 0.0
2016-Nov-30 00:31N 39°46' W 074°07'0 0.0
2016-Nov-29 23:25N 39°46' W 074°07'0 0.0
2016-Nov-29 22:31N 39°46' W 074°07'0 0.0
2016-Nov-29 21:13N 39°46' W 074°07'0 0.0
2016-Nov-29 20:25N 39°46' W 074°07'0 0.0
2016-Nov-29 19:31N 39°46' W 074°07'0 0.0
2016-Nov-29 18:31N 39°46' W 074°07'0 0.0
2016-Nov-29 17:31N 39°46' W 074°07'0 0.0
2016-Nov-29 16:25N 39°46' W 074°07'0 0.0
2016-Nov-29 15:25N 39°46' W 074°07'0 0.0
2016-Nov-29 14:25N 39°46' W 074°07'0 0.1
2016-Nov-29 13:18N 39°46' W 074°07'5 7.0
2016-Nov-29 12:33N 39°47' W 074°00'3 0.1
2016-Nov-28 16:23N 39°49' W 073°57'7 8.4
2016-Nov-28 15:32N 39°46' W 074°05'1 0.8
2016-Nov-28 14:19N 39°46' W 074°07'0 0.0
2016-Nov-28 13:31N 39°46' W 074°07'0 0.0
2016-Nov-28 12:31N 39°46' W 074°07'0 0.0
2016-Nov-28 11:31N 39°46' W 074°07'0 0.0
2016-Nov-28 10:25N 39°46' W 074°07'0 0.0
2016-Nov-28 09:31N 39°46' W 074°07'0 0.0
2016-Nov-28 08:31N 39°46' W 074°07'0 0.0
2016-Nov-28 07:31N 39°46' W 074°07'0 0.0
2016-Nov-28 06:25N 39°46' W 074°07'0 0.0
2016-Nov-28 05:31N 39°46' W 074°07'0 0.0
2016-Nov-28 04:31N 39°46' W 074°07'0 0.0
2016-Nov-28 03:31N 39°46' W 074°07'0 0.0
2016-Nov-28 02:25N 39°46' W 074°07'0 0.0
2016-Nov-28 01:19N 39°46' W 074°07'0 0.0
2016-Nov-28 00:31N 39°46' W 074°07'0 0.0
2016-Nov-27 23:31N 39°46' W 074°07'0 0.0
2016-Nov-27 22:31N 39°46' W 074°07'0 0.0
2016-Nov-27 21:31N 39°46' W 074°07'0 0.0
2016-Nov-27 20:25N 39°46' W 074°07'0 0.0
2016-Nov-27 19:25N 39°46' W 074°07'0 0.0
2016-Nov-27 17:31N 39°46' W 074°07'0 0.0
2016-Nov-27 16:31N 39°46' W 074°07'0 0.0
2016-Nov-27 15:31N 39°46' W 074°07'0 0.0
2016-Nov-27 14:07N 39°46' W 074°07'0 0.0
2016-Nov-27 13:25N 39°46' W 074°07'0 0.0
2016-Nov-27 12:31N 39°46' W 074°07'0 0.0
2016-Nov-27 11:31N 39°46' W 074°07'0 0.0
2016-Nov-27 09:31N 39°46' W 074°07'0 0.0
2016-Nov-27 08:31N 39°46' W 074°07'0 0.0
2016-Nov-27 07:31N 39°46' W 074°07'0 0.0
2016-Nov-27 06:31N 39°46' W 074°07'0 0.0
2016-Nov-27 05:07N 39°46' W 074°07'0 0.0
2016-Nov-27 04:25N 39°46' W 074°07'0 0.0
2016-Nov-27 03:19N 39°46' W 074°07'0 0.0
2016-Nov-27 02:31N 39°46' W 074°07'0 0.0
2016-Nov-27 01:19N 39°46' W 074°07'0 0.0
2016-Nov-27 00:25N 39°46' W 074°07'0 0.0
2016-Nov-26 23:25N 39°46' W 074°07'0 0.0
2016-Nov-26 22:31N 39°46' W 074°07'0 0.0
2016-Nov-26 21:31N 39°46' W 074°07'3 2.6
2016-Nov-26 20:31N 39°47' W 074°03'8 8.0
2016-Nov-26 19:29N 39°52' W 073°55'  
Track history (hours):
 
Tides and Currents Weather Stations Pressure Air Temp Water Temp Dewpoint Dewpoint Depression Visibility Wind Speed Wind Dir Waves Ship Positions

Frances Anne

Owner: Frances Anne Inc., West Creek, NJ. More information available from US FCC via Universal Licensing System and Coast Guard Vessel Documentation Center.

Last reported at 2016-Dec-06 11:33 UTC. Time now 2016-Dec-06 12:15 UTC.
Position N 39°46' W 074°07'.

Type: Fishing. MMSI: 367406910.

Date/timePositionNaut miles runAvg speedWind from/ knotsBaromVisibWave heightAir tempDewpointWater temp
2016-Dec-06 11:33N 39°46' W 074°07'0 0.0
2016-Dec-06 10:33N 39°46' W 074°07'0 0.0
2016-Dec-06 09:33N 39°46' W 074°07'0 0.0
2016-Dec-06 08:33N 39°46' W 074°07'0 0.0
2016-Dec-06 07:33N 39°46' W 074°07'0 0.0
2016-Dec-06 06:33N 39°46' W 074°07'0 0.0
2016-Dec-06 05:33N 39°46' W 074°07'0 0.0
2016-Dec-06 04:33N 39°46' W 074°07'0 0.0
2016-Dec-06 03:33N 39°46' W 074°07'0 0.0
2016-Dec-06 02:33N 39°46' W 074°07'0 0.0
2016-Dec-06 01:33N 39°46' W 074°07'0 0.0
2016-Dec-06 00:15N 39°46' W 074°07'0 0.0
2016-Dec-05 23:33N 39°46' W 074°07'0 0.0
2016-Dec-05 22:33N 39°46' W 074°06'0 0.0
2016-Dec-05 21:27N 39°46' W 074°07'0 0.0
2016-Dec-05 20:21N 39°46' W 074°07'0 0.0
2016-Dec-05 19:27N 39°46' W 074°07'0 0.0
2016-Dec-05 18:33N 39°46' W 074°07'0 0.0
2016-Dec-05 17:33N 39°46' W 074°07'0 0.0
2016-Dec-05 16:33N 39°46' W 074°07'0 0.0
2016-Dec-05 15:33N 39°46' W 074°07'0 0.0
2016-Dec-05 13:33N 39°46' W 074°07'0 0.0
2016-Dec-05 12:27N 39°46' W 074°07'0 0.1
2016-Dec-05 11:19N 39°46' W 074°07'4 5.7
2016-Dec-05 10:33N 39°47' W 074°01'5 0.2
2016-Dec-04 13:03N 39°50' W 073°56'4 7.7
2016-Dec-04 12:33N 39°48' W 074°00'5 4.7
2016-Dec-04 11:25N 39°46' W 074°07'0 0.0
2016-Dec-04 10:31N 39°46' W 074°07'0 0.0
2016-Dec-04 09:19N 39°46' W 074°07'0 0.0
2016-Dec-04 08:31N 39°46' W 074°07'0 0.0
2016-Dec-04 07:31N 39°46' W 074°07'0 0.0
2016-Dec-04 06:31N 39°46' W 074°07'0 0.0
2016-Dec-04 05:19N 39°46' W 074°07'0 0.0
2016-Dec-04 04:31N 39°46' W 074°07'0 0.0
2016-Dec-04 03:31N 39°46' W 074°07'0 0.0
2016-Dec-04 02:31N 39°46' W 074°07'0 0.0
2016-Dec-04 01:31N 39°46' W 074°07'0 0.0
2016-Dec-04 00:31N 39°46' W 074°07'0 0.0
2016-Dec-03 23:31N 39°46' W 074°07'0 0.0
2016-Dec-03 22:31N 39°46' W 074°07'0 0.0
2016-Dec-03 21:25N 39°46' W 074°07'0 0.0
2016-Dec-03 20:31N 39°46' W 074°07'0 0.0
2016-Dec-03 19:31N 39°46' W 074°07'0 0.0
2016-Dec-03 18:25N 39°46' W 074°07'0 0.0
2016-Dec-03 17:31N 39°46' W 074°07'0 0.0
2016-Dec-03 16:31N 39°46' W 074°07'0 0.0
2016-Dec-03 15:31N 39°46' W 074°07'0 0.0
2016-Dec-03 14:31N 39°46' W 074°07'0 0.0
2016-Dec-03 13:31N 39°46' W 074°07'0 0.0
2016-Dec-03 12:31N 39°46' W 074°07'0 0.0
2016-Dec-03 11:31N 39°46' W 074°07'0 0.0
2016-Dec-03 09:31N 39°46' W 074°07'0 0.0
2016-Dec-03 08:31N 39°46' W 074°07'0 0.0
2016-Dec-03 07:25N 39°46' W 074°07'0 0.0
2016-Dec-03 06:31N 39°46' W 074°07'0 0.0
2016-Dec-03 05:31N 39°46' W 074°07'0 0.0
2016-Dec-03 04:25N 39°46' W 074°07'0 0.0
2016-Dec-03 03:25N 39°46' W 074°07'0 0.0
2016-Dec-03 02:25N 39°46' W 074°07'0 0.0
2016-Dec-03 00:31N 39°46' W 074°07'0 0.0
2016-Dec-02 23:31N 39°46' W 074°07'0 0.0
2016-Dec-02 22:25N 39°46' W 074°07'0 0.0
2016-Dec-02 21:31N 39°46' W 074°07'0 0.0
2016-Dec-02 20:31N 39°46' W 074°07'0 0.0
2016-Dec-02 19:19N 39°46' W 074°07'0 0.0
2016-Dec-02 18:25N 39°46' W 074°07'0 0.0
2016-Dec-02 17:31N 39°46' W 074°07'0 0.0
2016-Dec-02 16:31N 39°46' W 074°07'0 0.0
2016-Dec-02 15:25N 39°46' W 074°07'0 0.0
2016-Dec-02 14:31N 39°46' W 074°07'0 0.0
2016-Dec-02 13:31N 39°46' W 074°07'0 0.0
2016-Dec-02 12:31N 39°46' W 074°07'0 0.0
2016-Dec-02 11:31N 39°46' W 074°07'0 0.0
2016-Dec-02 10:31N 39°46' W 074°07'0 0.0
2016-Dec-02 09:31N 39°46' W 074°07'0 0.0
2016-Dec-02 08:31N 39°46' W 074°07'0 0.0
2016-Dec-02 07:25N 39°46' W 074°07'0 0.0
2016-Dec-02 06:31N 39°46' W 074°07'0 0.0
2016-Dec-02 05:31N 39°46' W 074°07'0 0.0
2016-Dec-02 04:31N 39°46' W 074°07'0 0.0
2016-Dec-02 03:31N 39°46' W 074°07'0 0.0
2016-Dec-02 02:31N 39°46' W 074°07'0 0.0
2016-Dec-02 01:31N 39°46' W 074°07'0 0.0
2016-Dec-02 00:25N 39°46' W 074°07'0 0.0
2016-Dec-01 23:25N 39°46' W 074°07'0 0.0
2016-Dec-01 22:31N 39°46' W 074°07'0 0.0
2016-Dec-01 21:31N 39°46' W 074°07'0 0.0
2016-Dec-01 20:31N 39°46' W 074°07'0 0.0
2016-Dec-01 19:31N 39°46' W 074°07'0 0.0
2016-Dec-01 18:25N 39°46' W 074°07'0 0.0
2016-Dec-01 17:19N 39°46' W 074°07'0 0.0
2016-Dec-01 16:31N 39°46' W 074°07'0 0.0
2016-Dec-01 15:31N 39°46' W 074°07'0 0.0
2016-Dec-01 14:31N 39°46' W 074°07'0 0.0
2016-Dec-01 13:25N 39°46' W 074°07'0 0.0
2016-Dec-01 12:31N 39°46' W 074°07'0 0.0
2016-Dec-01 11:25N 39°46' W 074°07'0 0.0
2016-Dec-01 10:31N 39°46' W 074°07'0 0.0
2016-Dec-01 09:31N 39°46' W 074°07'0 0.0
2016-Dec-01 08:19N 39°46' W 074°07'0 0.0
2016-Dec-01 07:31N 39°46' W 074°07'0 0.0
2016-Dec-01 06:31N 39°46' W 074°07'0 0.0
2016-Dec-01 05:25N 39°46' W 074°07'0 0.0
2016-Dec-01 04:07N 39°46' W 074°07'0 0.0
2016-Dec-01 03:25N 39°46' W 074°07'0 0.0
2016-Dec-01 02:25N 39°46' W 074°07'0 0.0
2016-Dec-01 01:31N 39°46' W 074°07'0 0.0
2016-Dec-01 00:31N 39°46' W 074°07'0 0.0
2016-Nov-30 23:25N 39°46' W 074°07'0 0.0
2016-Nov-30 22:25N 39°46' W 074°07'0 0.0
2016-Nov-30 21:31N 39°46' W 074°07'0 0.0
2016-Nov-30 20:31N 39°46' W 074°07'0 0.0
2016-Nov-30 19:31N 39°46' W 074°07'0 0.0
2016-Nov-30 18:31N 39°46' W 074°07'0 0.0
2016-Nov-30 17:31N 39°46' W 074°07'0 0.0
2016-Nov-30 15:25N 39°46' W 074°07'0 0.0
2016-Nov-30 14:31N 39°46' W 074°07'0 0.0
2016-Nov-30 13:25N 39°46' W 074°07'0 0.0
2016-Nov-30 12:31N 39°46' W 074°07'0 0.0
2016-Nov-30 11:31N 39°46' W 074°07'0 0.0
2016-Nov-30 10:19N 39°46' W 074°07'0 0.0
2016-Nov-30 09:19N 39°46' W 074°07'0 0.0
2016-Nov-30 08:25N 39°46' W 074°07'0 0.0
2016-Nov-30 07:25N 39°46' W 074°07'0 0.0
2016-Nov-30 06:31N 39°46' W 074°07'0 0.0
2016-Nov-30 05:25N 39°46' W 074°07'0 0.0
2016-Nov-30 04:31N 39°46' W 074°07'0 0.0
2016-Nov-30 03:31N 39°46' W 074°07'0 0.0
2016-Nov-30 02:19N 39°46' W 074°07'0 0.0
2016-Nov-30 01:13N 39°46' W 074°07'0 0.0
2016-Nov-30 00:31N 39°46' W 074°07'0 0.0
2016-Nov-29 23:25N 39°46' W 074°07'0 0.0
2016-Nov-29 22:31N 39°46' W 074°07'0 0.0
2016-Nov-29 21:13N 39°46' W 074°07'0 0.0
2016-Nov-29 20:25N 39°46' W 074°07'0 0.0
2016-Nov-29 19:31N 39°46' W 074°07'0 0.0
2016-Nov-29 18:31N 39°46' W 074°07'0 0.0
2016-Nov-29 17:31N 39°46' W 074°07'0 0.0
2016-Nov-29 16:25N 39°46' W 074°07'0 0.0
2016-Nov-29 15:25N 39°46' W 074°07'0 0.0
2016-Nov-29 14:25N 39°46' W 074°07'0 0.1
2016-Nov-29 13:18N 39°46' W 074°07'5 7.0
2016-Nov-29 12:33N 39°47' W 074°00'3 0.1
2016-Nov-28 16:23N 39°49' W 073°57'7 8.4
2016-Nov-28 15:32N 39°46' W 074°05'1 0.8
2016-Nov-28 14:19N 39°46' W 074°07'0 0.0
2016-Nov-28 13:31N 39°46' W 074°07'0 0.0
2016-Nov-28 12:31N 39°46' W 074°07'0 0.0
2016-Nov-28 11:31N 39°46' W 074°07'0 0.0
2016-Nov-28 10:25N 39°46' W 074°07'0 0.0
2016-Nov-28 09:31N 39°46' W 074°07'0 0.0
2016-Nov-28 08:31N 39°46' W 074°07'0 0.0
2016-Nov-28 07:31N 39°46' W 074°07'0 0.0
2016-Nov-28 06:25N 39°46' W 074°07'0 0.0
2016-Nov-28 05:31N 39°46' W 074°07'0 0.0
2016-Nov-28 04:31N 39°46' W 074°07'0 0.0
2016-Nov-28 03:31N 39°46' W 074°07'0 0.0
2016-Nov-28 02:25N 39°46' W 074°07'0 0.0
2016-Nov-28 01:19N 39°46' W 074°07'0 0.0
2016-Nov-28 00:31N 39°46' W 074°07'0 0.0
2016-Nov-27 23:31N 39°46' W 074°07'0 0.0
2016-Nov-27 22:31N 39°46' W 074°07'0 0.0
2016-Nov-27 21:31N 39°46' W 074°07'0 0.0
2016-Nov-27 20:25N 39°46' W 074°07'0 0.0
2016-Nov-27 19:25N 39°46' W 074°07'0 0.0
2016-Nov-27 17:31N 39°46' W 074°07'0 0.0
2016-Nov-27 16:31N 39°46' W 074°07'0 0.0
2016-Nov-27 15:31N 39°46' W 074°07'0 0.0
2016-Nov-27 14:07N 39°46' W 074°07'0 0.0
2016-Nov-27 13:25N 39°46' W 074°07'0 0.0
2016-Nov-27 12:31N 39°46' W 074°07'0 0.0
2016-Nov-27 11:31N 39°46' W 074°07'0 0.0
2016-Nov-27 09:31N 39°46' W 074°07'0 0.0
2016-Nov-27 08:31N 39°46' W 074°07'0 0.0
2016-Nov-27 07:31N 39°46' W 074°07'0 0.0
2016-Nov-27 06:31N 39°46' W 074°07'0 0.0
2016-Nov-27 05:07N 39°46' W 074°07'0 0.0
2016-Nov-27 04:25N 39°46' W 074°07'0 0.0
2016-Nov-27 03:19N 39°46' W 074°07'0 0.0
2016-Nov-27 02:31N 39°46' W 074°07'0 0.0
2016-Nov-27 01:19N 39°46' W 074°07'0 0.0
2016-Nov-27 00:25N 39°46' W 074°07'0 0.0
2016-Nov-26 23:25N 39°46' W 074°07'0 0.0
2016-Nov-26 22:31N 39°46' W 074°07'0 0.0
2016-Nov-26 21:31N 39°46' W 074°07'3 2.6
2016-Nov-26 20:31N 39°47' W 074°03'8 8.0
2016-Nov-26 19:29N 39°52' W 073°55'  

Dump ship's entire track history